Latest Weather Observations for Swan Island

IDT60801

Issued at 10:35 am EDT Friday 31 October 2014 (issued every 30 minutes, with the page automatically refreshed every 10 minutes)

About weather observations | Map of weather stations | Latest weather observations for TAS | Other Formats
Station Details ID: 092123 Name: SWAN ISLAND Lat: -40.73 Lon: 148.12 Height: 15.0 m
Data from the previous 72 hours. | See also: Recent months at Swan Island
Date/Time
EDT
Temp
°C
App
Temp
°C
Dew
Point
Rel
Hum
%
Delta-T
°C
Wind Press
QNH
hPa
Press
MSL
hPa
Rain
since 9 am
mm
Dir
 
Spd
km/h
Gust
km/h
Spd
kts
Gust
kts
31/10:30am 15.3 - - - - NNW 37 44 20 24 1007.6 1007.6 0.0
31/10:00am 14.2 - - - - NW 35 44 19 24 1008.0 1008.0 0.0
31/09:30am 14.2 - - - - NW 30 41 16 22 1008.4 1008.4 0.0
31/09:00am 14.5 - - - - NW 32 41 17 22 1008.8 1008.8 0.0
31/08:30am 13.7 - - - - NW 28 35 15 19 1008.9 1008.9 0.0
31/08:00am 13.6 - - - - NW 28 33 15 18 1008.8 1008.8 0.0
31/07:30am 13.2 - - - - NW 24 30 13 16 1008.8 1008.8 0.0
31/07:00am 13.1 - - - - NW 26 35 14 19 1009.1 1009.1 0.0
31/06:30am 13.0 - - - - WNW 24 33 13 18 1008.9 1008.9 0.0
31/06:00am 12.8 - - - - WNW 26 39 14 21 1008.9 1008.9 0.0
31/05:30am 12.6 - - - - W 19 32 10 17 1008.8 1008.8 0.0
31/05:00am 12.9 - - - - WNW 26 33 14 18 1008.7 1008.7 0.0
31/04:30am 12.6 - - - - WNW 28 39 15 21 1008.7 1008.7 0.0
31/04:00am 12.6 - - - - WNW 22 33 12 18 1009.0 1009.0 0.0
31/03:30am 12.7 - - - - WNW 28 37 15 20 1009.4 1009.4 0.0
31/03:00am 12.8 - - - - WNW 26 44 14 24 1009.6 1009.6 0.0
31/02:30am 12.6 - - - - WNW 26 39 14 21 1009.7 1009.7 0.0
31/02:00am 12.7 - - - - W 24 35 13 19 1009.9 1009.9 0.0
31/01:30am 12.9 - - - - WNW 26 39 14 21 1010.2 1010.2 0.0
31/01:00am 12.8 - - - - WNW 20 32 11 17 1010.2 1010.2 0.0
31/12:30am 13.0 - - - - WNW 20 30 11 16 1010.4 1010.4 0.0
31/12:00am 12.9 - - - - W 28 37 15 20 1010.7 1010.7 0.0
 
Date/Time
EDT
Temp
°C
App
Temp
°C
Dew
Point
Rel
Hum
%
Delta-T
°C
Wind Press
QNH
hPa
Press
MSL
hPa
Rain
since 9 am
mm
Dir
 
Spd
km/h
Gust
km/h
Spd
kts
Gust
kts
30/11:30pm 13.1 - - - - W 28 39 15 21 1010.9 1010.8 0.0
30/11:00pm 13.2 - - - - W 30 41 16 22 1010.7 1010.7 0.0
30/10:30pm 13.3 - - - - W 26 37 14 20 1011.0 1010.9 0.0
30/10:00pm 13.3 - - - - W 28 39 15 21 1011.0 1010.9 0.0
30/09:30pm 13.3 - - - - W 32 44 17 24 1010.9 1010.8 0.0
30/09:00pm 13.3 - - - - W 28 41 15 22 1010.4 1010.4 0.0
30/08:30pm 13.5 - - - - WNW 24 35 13 19 1010.4 1010.4 0.0
30/08:00pm 13.6 - - - - WNW 26 39 14 21 1010.3 1010.3 0.0
30/07:30pm 13.6 - - - - WNW 26 41 14 22 1010.0 1010.0 0.0
30/07:00pm 13.9 - - - - W 28 41 15 22 1010.1 1010.1 0.0
30/06:30pm 14.3 - - - - WNW 28 39 15 21 1009.8 1009.8 0.0
30/06:00pm 14.8 - - - - WNW 30 43 16 23 1009.9 1009.9 0.0
30/05:30pm 15.3 - - - - WNW 32 46 17 25 1009.8 1009.8 0.0
30/05:00pm 15.4 - - - - WNW 32 41 17 22 1009.5 1009.5 0.0
30/04:30pm 15.7 - - - - WNW 33 44 18 24 1009.7 1009.7 0.0
30/04:00pm 15.7 - - - - WNW 35 48 19 26 1009.4 1009.4 0.0
30/03:30pm 15.9 - - - - WNW 33 46 18 25 1009.5 1009.5 0.0
30/03:25pm 16.1 - - - - WNW 33 52 18 28 1009.4 1009.4 0.0
30/03:00pm 15.9 - - - - WNW 35 46 19 25 1009.4 1009.4 0.0
30/02:30pm 16.2 - - - - WNW 33 46 18 25 1009.6 1009.6 0.0
30/02:00pm 16.0 - - - - WNW 35 56 19 30 1009.6 1009.6 0.0
30/01:30pm 16.1 - - - - WNW 33 46 18 25 1010.1 1010.1 0.0
30/01:00pm 16.6 - - - - WNW 30 43 16 23 1009.9 1009.9 0.0
30/12:30pm 16.6 - - - - WNW 28 48 15 26 1010.1 1010.1 0.0
30/12:29pm 16.5 - - - - WNW 28 48 15 26 1010.1 1010.1 0.0
30/12:00pm 16.3 - - - - WNW 32 46 17 25 1010.2 1010.2 0.0
30/11:30am 16.4 - - - - WNW 28 39 15 21 1010.6 1010.6 0.0
30/11:00am 15.7 - - - - WNW 30 39 16 21 1010.9 1010.8 0.0
30/10:30am 15.6 - - - - WNW 26 41 14 22 1011.2 1011.1 0.0
30/10:00am 15.3 - - - - WNW 28 39 15 21 1011.0 1010.9 0.0
30/09:30am 15.1 - - - - WNW 30 44 16 24 1010.7 1010.7 0.0
30/09:00am 15.1 - - - - WNW 28 43 15 23 1011.0 1010.9 0.0
30/08:30am 14.3 - - - - WNW 32 43 17 23 1010.6 1010.6 0.0
30/08:00am 13.9 - - - - WNW 33 46 18 25 1010.3 1010.3 0.0
30/07:30am 13.5 - - - - WNW 32 43 17 23 1010.2 1010.2 0.0
30/07:00am 12.9 - - - - WNW 32 43 17 23 1010.1 1010.1 0.0
30/06:30am 12.6 - - - - WNW 30 44 16 24 1009.8 1009.8 0.0
30/06:00am 12.3 - - - - W 28 43 15 23 1009.5 1009.5 0.0
30/05:30am 12.4 - - - - W 39 56 21 30 1009.4 1009.4 0.0
30/05:09am 12.4 - - - - W 32 52 17 28 1009.5 1009.5 0.0
30/05:00am 12.8 - - - - W 30 44 16 24 1009.6 1009.6 0.0
30/04:30am 12.8 - - - - WNW 28 41 15 22 1009.4 1009.4 0.0
30/04:00am 12.8 - - - - WNW 32 44 17 24 1009.4 1009.4 0.0
30/03:52am 12.9 - - - - WNW 30 48 16 26 1009.5 1009.5 0.0
30/03:30am 12.7 - - - - WNW 33 48 18 26 1009.4 1009.4 0.0
30/03:00am 12.9 - - - - WNW 32 52 17 28 1009.2 1009.2 0.0
30/02:52am 12.9 - - - - WNW 32 52 17 28 1009.2 1009.2 0.0
30/02:30am 12.9 - - - - WNW 33 46 18 25 1009.3 1009.3 0.0
30/02:16am 12.9 - - - - WNW 37 56 20 30 1009.3 1009.3 0.0
30/02:00am 12.9 - - - - WNW 35 52 19 28 1009.3 1009.3 0.0
30/01:30am 13.0 - - - - WNW 37 56 20 30 1009.6 1009.6 0.0
30/01:03am 13.1 - - - - W 32 50 17 27 1009.9 1009.9 0.0
30/01:00am 13.1 - - - - W 32 46 17 25 1009.9 1009.9 0.0
30/12:30am 13.3 - - - - WNW 35 56 19 30 1010.1 1010.1 0.0
30/12:01am 13.3 - - - - WNW 39 57 21 31 1010.3 1010.3 0.0
30/12:00am 13.3 - - - - WNW 39 57 21 31 1010.3 1010.3 0.0
 
Date/Time
EDT
Temp
°C
App
Temp
°C
Dew
Point
Rel
Hum
%
Delta-T
°C
Wind Press
QNH
hPa
Press
MSL
hPa
Rain
since 9 am
mm
Dir
 
Spd
km/h
Gust
km/h
Spd
kts
Gust
kts
29/11:55pm 13.3 - - - - WNW 35 56 19 30 1010.3 1010.3 0.0
29/11:30pm 13.3 - - - - WNW 39 56 21 30 1010.5 1010.5 0.0
29/11:04pm 13.3 - - - - WNW 41 61 22 33 1010.4 1010.4 0.0
29/11:00pm 13.3 - - - - WNW 39 56 21 30 1010.6 1010.6 0.0
29/10:30pm 13.3 - - - - WNW 41 61 22 33 1010.4 1010.4 0.0
29/10:00pm 13.3 - - - - WNW 41 59 22 32 1010.5 1010.5 0.0
29/09:33pm 13.3 - - - - WNW 43 63 23 34 1010.5 1010.5 0.0
29/09:30pm 13.4 - - - - WNW 39 57 21 31 1010.6 1010.6 0.0
29/09:01pm 13.3 - - - - WNW 43 63 23 34 1010.5 1010.5 0.0
29/09:00pm 13.3 - - - - WNW 43 59 23 32 1010.6 1010.6 0.0
29/08:30pm 13.3 - - - - WNW 44 65 24 35 1010.3 1010.3 0.0
29/08:27pm 13.2 - - - - WNW 43 65 23 35 1010.2 1010.2 0.0
29/08:00pm 13.3 - - - - WNW 46 59 25 32 1010.0 1010.0 0.0
29/07:34pm 13.4 - - - - WNW 44 65 24 35 1010.0 1010.0 0.0
29/07:30pm 13.5 - - - - WNW 44 63 24 34 1010.0 1010.0 0.0
29/07:12pm 13.5 - - - - WNW 46 70 25 38 1009.8 1009.8 0.0
29/07:00pm 13.7 - - - - WNW 46 61 25 33 1009.7 1009.7 0.0
29/06:36pm 13.8 - - - - WNW 50 69 27 37 1009.3 1009.3 0.0
29/06:30pm 13.8 - - - - WNW 52 67 28 36 1009.4 1009.4 0.0
29/06:00pm 14.1 - - - - WNW 48 72 26 39 1009.3 1009.3 0.0
29/05:40pm 14.1 - - - - WNW 50 69 27 37 1009.5 1009.5 0.0
29/05:30pm 14.1 - - - - WNW 46 65 25 35 1009.6 1009.6 0.0
29/05:05pm 14.4 - - - - WNW 44 65 24 35 1009.9 1009.9 0.0
29/05:00pm 14.6 - - - - WNW 44 61 24 33 1010.0 1010.0 0.0
29/04:38pm 14.5 - - - - WNW 46 67 25 36 1009.9 1009.9 0.0
29/04:30pm 14.6 - - - - WNW 44 61 24 33 1010.0 1010.0 0.0
29/04:00pm 14.5 - - - - WNW 46 59 25 32 1010.3 1010.3 0.0
29/03:30pm 14.8 - - - - WNW 44 65 24 35 1010.6 1010.6 0.0
29/03:00pm 15.3 - - - - WNW 43 61 23 33 1011.2 1011.1 0.0
29/02:59pm 15.1 - - - - WNW 43 61 23 33 1011.2 1011.1 0.0
29/02:30pm 15.4 - - - - WNW 43 56 23 30 1011.6 1011.5 0.0
29/02:00pm 15.2 - - - - WNW 39 52 21 28 1012.0 1011.9 0.0
29/01:30pm 14.3 - - - - WNW 37 52 20 28 1012.4 1012.4 0.0
29/01:22pm 13.7 - - - - WNW 33 52 18 28 1012.5 1012.5 0.0
29/01:00pm 15.4 - - - - WNW 37 52 20 28 1012.5 1012.5 0.0
29/12:30pm 15.1 - - - - WNW 35 50 19 27 1012.7 1012.7 0.0
29/12:00pm 15.4 - - - - W 35 48 19 26 1012.9 1012.9 0.0
29/11:30am 15.7 - - - - W 32 44 17 24 1013.1 1013.1 0.0
29/11:02am 13.8 - - - - W 35 56 19 30 1013.5 1013.5 0.0
29/11:00am 13.7 - - - - W 39 56 21 30 1013.4 1013.4 0.0
29/10:34am 13.9 - - - - W 41 59 22 32 1013.2 1013.2 0.0
29/10:30am 13.8 - - - - W 44 59 24 32 1013.3 1013.3 0.0
29/10:16am 14.4 - - - - W 37 56 20 30 1013.2 1013.2 0.0
29/10:00am 14.2 - - - - W 43 54 23 29 1013.4 1013.4 0.0
29/09:41am 13.8 - - - - W 39 57 21 31 1013.3 1013.3 0.0
29/09:30am 13.8 - - - - W 37 52 20 28 1013.4 1013.4 0.0
29/09:00am 13.5 - - - - W 33 48 18 26 1013.1 1013.1 0.0
29/08:30am 12.9 - - - - W 35 44 19 24 1013.0 1013.0 0.0
29/08:00am 12.2 - - - - W 26 37 14 20 1012.7 1012.7 0.0
29/07:30am 11.4 - - - - W 24 39 13 21 1012.4 1012.4 0.0
29/07:00am 10.6 - - - - WSW 17 28 9 15 1012.7 1012.7 0.0
29/06:30am 10.3 - - - - W 19 35 10 19 1012.7 1012.7 0.0
29/06:00am 10.3 - - - - W 19 30 10 16 1011.9 1011.8 0.0
29/05:30am 9.8 - - - - WSW 17 28 9 15 1011.6 1011.5 0.0
29/05:00am 10.6 - - - - W 24 39 13 21 1011.3 1011.2 0.0
29/04:30am 10.5 - - - - W 33 48 18 26 1010.3 1010.3 0.0
29/04:00am 10.7 - - - - W 28 44 15 24 1010.7 1010.7 0.0
29/03:30am 10.8 - - - - W 28 43 15 23 1010.4 1010.4 0.0
29/03:00am 10.6 - - - - W 35 48 19 26 1010.1 1010.1 0.0
29/02:30am 10.6 - - - - W 35 48 19 26 1009.7 1009.7 0.0
29/02:00am 10.8 - - - - W 43 57 23 31 1009.2 1009.2 0.0
29/01:30am 10.8 - - - - W 41 57 22 31 1008.9 1008.9 0.0
29/01:00am 10.8 - - - - W 39 56 21 30 1008.9 1008.9 0.0
29/12:34am 10.9 - - - - W 33 52 18 28 1009.2 1009.2 0.0
29/12:30am 10.9 - - - - W 35 52 19 28 1009.1 1009.1 0.0
29/12:00am 10.9 - - - - W 46 69 25 37 1008.3 1008.3 0.0
 
Date/Time
EDT
Temp
°C
App
Temp
°C
Dew
Point
Rel
Hum
%
Delta-T
°C
Wind Press
QNH
hPa
Press
MSL
hPa
Rain
since 9 am
mm
Dir
 
Spd
km/h
Gust
km/h
Spd
kts
Gust
kts
28/11:30pm 10.8 - - - - W 44 63 24 34 1007.8 1007.8 0.0
28/11:10pm 10.8 - - - - W 39 63 21 34 1008.0 1008.0 0.0
28/11:00pm 10.8 - - - - W 37 56 20 30 1008.0 1008.0 0.0
28/10:30pm 11.0 - - - - W 37 59 20 32 1007.5 1007.5 0.0
28/10:00pm 11.1 - - - - W 43 65 23 35 1007.0 1007.0 0.0
28/09:30pm 11.3 - - - - W 56 80 30 43 1006.2 1006.2 0.0
28/09:00pm 11.5 - - - - W 54 76 29 41 1005.8 1005.8 0.0
28/08:30pm 11.7 - - - - W 56 76 30 41 1004.9 1004.9 0.0
28/08:00pm 11.7 - - - - W 65 85 35 46 1004.3 1004.3 0.0
28/07:30pm 11.8 - - - - W 61 89 33 48 1003.7 1003.7 0.0
28/07:00pm 12.0 - - - - W 57 82 31 44 1003.5 1003.5 0.0
28/06:30pm 12.4 - - - - W 67 87 36 47 1002.5 1002.5 0.0
28/06:00pm 12.9 - - - - W 61 82 33 44 1002.1 1002.1 0.0
28/05:34pm 13.2 - - - - W 70 91 38 49 1001.7 1001.7 0.0
28/05:30pm 13.1 - - - - W 76 91 41 49 1001.5 1001.5 0.0
28/05:29pm 13.2 - - - - W 76 91 41 49 1001.4 1001.4 0.0
28/05:00pm 13.1 - - - - W 56 80 30 43 1001.3 1001.3 0.0
28/04:30pm 13.4 - - - - WNW 48 69 26 37 1001.1 1001.1 0.0
28/04:17pm 13.9 - - - - W 48 69 26 37 1000.8 1000.8 0.0
28/04:00pm 13.7 - - - - W 69 95 37 51 1000.5 1000.5 0.0
28/03:59pm 13.5 - - - - W 74 95 40 51 1000.3 1000.3 0.0
28/03:30pm 13.7 - - - - W 52 82 28 44 1000.4 1000.4 0.0
28/03:00pm 13.8 - - - - W 50 78 27 42 1000.4 1000.4 0.0
28/02:30pm 14.0 - - - - W 57 83 31 45 1000.2 1000.2 0.0
28/02:00pm 13.7 - - - - W 69 93 37 50 999.8 999.8 0.0
28/01:56pm 13.7 - - - - W 70 89 38 48 999.9 999.9 0.0
28/01:54pm 13.5 - - - - W 72 89 39 48 999.7 999.7 0.0
28/01:30pm 13.6 - - - - W 52 83 28 45 999.2 999.2 0.0
28/01:00pm 13.7 - - - - W 56 80 30 43 999.2 999.2 0.0
28/12:30pm 13.5 - - - - WNW 50 76 27 41 998.9 998.9 0.0
28/12:00pm 13.4 - - - - W 50 87 27 47 998.7 998.7 0.0
28/11:37am 13.5 - - - - W 56 76 30 41 998.8 998.8 0.0
28/11:30am 13.1 - - - - W 57 76 31 41 998.8 998.8 0.0
28/11:00am 13.4 - - - - W 59 93 32 50 998.4 998.4 0.0

Other Formats:

Comma delimited format used in spreadsheet applications
http://www.bom.gov.au/fwo/IDT60801/IDT60801.95985.axf

JavaScript Object Notation format (JSON) in row-major order
http://www.bom.gov.au/fwo/IDT60801/IDT60801.95985.json